sensor_id;sensor_type;location;lat;lon;timestamp;pressure;altitude;pressure_sealevel;temperature;humidity
65756;BME280;52489;47.502;18.940;2023-04-02T00:00:31;97170.72;;;7.38;85.89
65756;BME280;52489;47.502;18.940;2023-04-02T00:01:36;97168.41;;;7.37;85.90
65756;BME280;52489;47.502;18.940;2023-04-02T00:04:02;97165.97;;;7.40;86.25
65756;BME280;52489;47.502;18.940;2023-04-02T00:06:34;97171.13;;;7.32;86.68
65756;BME280;52489;47.502;18.940;2023-04-02T00:07:50;97172.41;;;7.20;87.36
65756;BME280;52489;47.502;18.940;2023-04-02T00:08:55;97166.44;;;7.20;87.33
65756;BME280;52489;47.502;18.940;2023-04-02T00:10:00;97176.19;;;7.14;87.81
65756;BME280;52489;47.502;18.940;2023-04-02T00:11:05;97165.94;;;7.18;87.93
65756;BME280;52489;47.502;18.940;2023-04-02T00:12:17;97164.59;;;7.20;87.86
65756;BME280;52489;47.502;18.940;2023-04-02T00:13:43;97173.56;;;7.28;87.64
65756;BME280;52489;47.502;18.940;2023-04-02T00:14:49;97176.75;;;7.25;87.62
65756;BME280;52489;47.502;18.940;2023-04-02T00:15:54;97182.25;;;7.23;87.82
65756;BME280;52489;47.502;18.940;2023-04-02T00:17:01;97180.41;;;7.24;87.83
65756;BME280;52489;47.502;18.940;2023-04-02T00:18:05;97172.13;;;7.22;87.88
65756;BME280;52489;47.502;18.940;2023-04-02T00:19:23;97180.03;;;7.17;88.05
65756;BME280;52489;47.502;18.940;2023-04-02T00:20:33;97174.72;;;7.22;87.95
65756;BME280;52489;47.502;18.940;2023-04-02T00:21:38;97177.94;;;7.19;88.23
65756;BME280;52489;47.502;18.940;2023-04-02T00:22:43;97170.56;;;7.21;88.25
65756;BME280;52489;47.502;18.940;2023-04-02T00:23:47;97175.00;;;7.20;88.01
65756;BME280;52489;47.502;18.940;2023-04-02T00:24:52;97172.87;;;7.22;87.93
65756;BME280;52489;47.502;18.940;2023-04-02T00:25:55;97177.44;;;7.17;88.16
65756;BME280;52489;47.502;18.940;2023-04-02T00:26:58;97183.31;;;7.22;87.95
65756;BME280;52489;47.502;18.940;2023-04-02T00:28:02;97176.84;;;7.20;88.00
65756;BME280;52489;47.502;18.940;2023-04-02T00:29:06;97172.50;;;7.15;88.07
65756;BME280;52489;47.502;18.940;2023-04-02T00:30:12;97179.28;;;7.16;88.24
65756;BME280;52489;47.502;18.940;2023-04-02T00:31:16;97177.94;;;7.19;87.99
65756;BME280;52489;47.502;18.940;2023-04-02T00:32:25;97175.38;;;7.27;87.69
65756;BME280;52489;47.502;18.940;2023-04-02T00:33:30;97172.84;;;7.36;86.80
65756;BME280;52489;47.502;18.940;2023-04-02T00:34:36;97176.53;;;7.21;87.02
65756;BME280;52489;47.502;18.940;2023-04-02T00:35:40;97169.12;;;7.15;87.25
65756;BME280;52489;47.502;18.940;2023-04-02T00:36:43;97176.38;;;7.18;87.43
65756;BME280;52489;47.502;18.940;2023-04-02T00:37:48;97169.22;;;7.23;86.71
65756;BME280;52489;47.502;18.940;2023-04-02T00:38:56;97172.13;;;7.22;86.87
65756;BME280;52489;47.502;18.940;2023-04-02T00:40:01;97169.91;;;7.15;86.98
65756;BME280;52489;47.502;18.940;2023-04-02T00:41:16;97170.12;;;7.05;87.34
65756;BME280;52489;47.502;18.940;2023-04-02T00:42:22;97180.16;;;6.98;87.62
65756;BME280;52489;47.502;18.940;2023-04-02T00:43:29;97171.75;;;7.01;87.36
65756;BME280;52489;47.502;18.940;2023-04-02T00:44:37;97180.81;;;7.03;87.47
65756;BME280;52489;47.502;18.940;2023-04-02T00:45:46;97175.75;;;6.98;87.67
65756;BME280;52489;47.502;18.940;2023-04-02T00:46:52;97180.94;;;6.98;87.31
65756;BME280;52489;47.502;18.940;2023-04-02T00:47:59;97178.44;;;6.93;87.42
65756;BME280;52489;47.502;18.940;2023-04-02T00:49:09;97179.88;;;6.99;86.80
65756;BME280;52489;47.502;18.940;2023-04-02T00:50:25;97175.75;;;6.84;87.74
65756;BME280;52489;47.502;18.940;2023-04-02T00:51:45;97179.03;;;6.90;87.61
65756;BME280;52489;47.502;18.940;2023-04-02T00:52:51;97180.97;;;6.71;88.17
65756;BME280;52489;47.502;18.940;2023-04-02T00:53:57;97180.37;;;6.74;89.14
65756;BME280;52489;47.502;18.940;2023-04-02T00:55:11;97183.84;;;6.83;88.47
65756;BME280;52489;47.502;18.940;2023-04-02T00:56:23;97178.00;;;6.77;88.70
65756;BME280;52489;47.502;18.940;2023-04-02T00:57:27;97180.28;;;6.65;89.73
65756;BME280;52489;47.502;18.940;2023-04-02T00:58:33;97181.25;;;6.69;89.66
65756;BME280;52489;47.502;18.940;2023-04-02T01:00:17;97185.41;;;6.70;89.69
65756;BME280;52489;47.502;18.940;2023-04-02T01:01:25;97180.97;;;6.71;89.94
65756;BME280;52489;47.502;18.940;2023-04-02T01:02:31;97181.25;;;6.69;90.33
65756;BME280;52489;47.502;18.940;2023-04-02T01:03:35;97187.63;;;6.63;90.60
65756;BME280;52489;47.502;18.940;2023-04-02T01:04:40;97176.25;;;6.73;90.21
65756;BME280;52489;47.502;18.940;2023-04-02T01:05:45;97181.84;;;6.66;90.65
65756;BME280;52489;47.502;18.940;2023-04-02T01:06:50;97186.47;;;6.69;90.70
65756;BME280;52489;47.502;18.940;2023-04-02T01:08:10;97182.53;;;6.72;90.64
65756;BME280;52489;47.502;18.940;2023-04-02T01:09:32;97177.88;;;6.82;90.34
65756;BME280;52489;47.502;18.940;2023-04-02T01:12:18;97192.44;;;6.83;90.04
65756;BME280;52489;47.502;18.940;2023-04-02T01:13:37;97190.78;;;6.88;90.14
65756;BME280;52489;47.502;18.940;2023-04-02T01:18:41;97190.03;;;6.87;89.87
65756;BME280;52489;47.502;18.940;2023-04-02T01:20:04;97189.53;;;6.85;90.08
65756;BME280;52489;47.502;18.940;2023-04-02T01:21:23;97181.22;;;6.83;90.29
65756;BME280;52489;47.502;18.940;2023-04-02T01:24:03;97190.31;;;6.86;90.31
65756;BME280;52489;47.502;18.940;2023-04-02T01:25:14;97183.25;;;6.86;90.08
65756;BME280;52489;47.502;18.940;2023-04-02T01:26:26;97186.84;;;6.76;90.58
65756;BME280;52489;47.502;18.940;2023-04-02T01:27:38;97177.41;;;6.80;90.59
65756;BME280;52489;47.502;18.940;2023-04-02T01:30:09;97174.59;;;6.77;90.41
65756;BME280;52489;47.502;18.940;2023-04-02T01:31:15;97182.22;;;6.87;89.91
65756;BME280;52489;47.502;18.940;2023-04-02T01:32:19;97178.44;;;6.79;90.13
65756;BME280;52489;47.502;18.940;2023-04-02T01:33:33;97175.84;;;6.79;90.26
65756;BME280;52489;47.502;18.940;2023-04-02T01:34:37;97180.00;;;6.67;90.76
65756;BME280;52489;47.502;18.940;2023-04-02T01:35:43;97182.41;;;6.77;90.54
65756;BME280;52489;47.502;18.940;2023-04-02T01:37:10;97181.72;;;6.71;90.46
65756;BME280;52489;47.502;18.940;2023-04-02T01:38:29;97181.25;;;6.69;90.95
65756;BME280;52489;47.502;18.940;2023-04-02T01:40:46;97184.25;;;6.76;90.54
65756;BME280;52489;47.502;18.940;2023-04-02T01:42:25;97187.41;;;6.73;90.77
65756;BME280;52489;47.502;18.940;2023-04-02T01:43:28;97185.88;;;6.72;91.00
65756;BME280;52489;47.502;18.940;2023-04-02T01:45:37;97190.91;;;6.69;91.30
65756;BME280;52489;47.502;18.940;2023-04-02T01:46:41;97188.09;;;6.79;90.70
65756;BME280;52489;47.502;18.940;2023-04-02T01:47:44;97189.34;;;6.68;90.89
65756;BME280;52489;47.502;18.940;2023-04-02T01:48:48;97187.81;;;6.67;91.13
65756;BME280;52489;47.502;18.940;2023-04-02T01:49:56;97192.34;;;6.61;91.37
65756;BME280;52489;47.502;18.940;2023-04-02T01:50:59;97179.59;;;6.59;91.83
65756;BME280;52489;47.502;18.940;2023-04-02T01:52:05;97198.81;;;6.64;91.75
65756;BME280;52489;47.502;18.940;2023-04-02T01:53:14;97187.63;;;6.63;91.68
65756;BME280;52489;47.502;18.940;2023-04-02T01:54:18;97194.94;;;6.61;91.77
65756;BME280;52489;47.502;18.940;2023-04-02T01:55:34;97186.88;;;6.63;91.87
65756;BME280;52489;47.502;18.940;2023-04-02T01:56:41;97195.63;;;6.67;91.70
65756;BME280;52489;47.502;18.940;2023-04-02T01:57:48;97194.38;;;6.64;91.69
65756;BME280;52489;47.502;18.940;2023-04-02T01:58:55;97199.75;;;6.68;91.62
65756;BME280;52489;47.502;18.940;2023-04-02T01:59:59;97198.22;;;6.67;91.59
65756;BME280;52489;47.502;18.940;2023-04-02T02:01:11;97198.50;;;6.65;91.97
65756;BME280;52489;47.502;18.940;2023-04-02T02:02:15;97199.28;;;6.66;92.10
65756;BME280;52489;47.502;18.940;2023-04-02T02:03:19;97202.34;;;6.68;92.19
65756;BME280;52489;47.502;18.940;2023-04-02T02:04:23;97193.12;;;6.75;91.79
65756;BME280;52489;47.502;18.940;2023-04-02T02:05:27;97195.53;;;6.72;92.14
65756;BME280;52489;47.502;18.940;2023-04-02T02:06:30;97194.38;;;6.78;91.99
65756;BME280;52489;47.502;18.940;2023-04-02T02:07:33;97191.78;;;6.78;91.84
65756;BME280;52489;47.502;18.940;2023-04-02T02:08:55;97197.44;;;6.80;91.94
65756;BME280;52489;47.502;18.940;2023-04-02T02:09:59;97191.88;;;6.87;91.67
65756;BME280;52489;47.502;18.940;2023-04-02T02:11:05;97186.84;;;6.90;91.66
65756;BME280;52489;47.502;18.940;2023-04-02T02:12:12;97189.13;;;6.92;91.76
65756;BME280;52489;47.502;18.940;2023-04-02T02:13:16;97185.31;;;6.89;92.10
65756;BME280;52489;47.502;18.940;2023-04-02T02:14:22;97187.41;;;6.87;92.32
65756;BME280;52489;47.502;18.940;2023-04-02T02:15:26;97189.94;;;6.92;92.33
65756;BME280;52489;47.502;18.940;2023-04-02T02:16:30;97186.25;;;6.93;92.31
65756;BME280;52489;47.502;18.940;2023-04-02T02:17:34;97189.03;;;6.97;92.02
65756;BME280;52489;47.502;18.940;2023-04-02T02:18:37;97192.81;;;7.04;91.72
65756;BME280;52489;47.502;18.940;2023-04-02T02:19:55;97194.63;;;7.04;91.69
65756;BME280;52489;47.502;18.940;2023-04-02T02:21:04;97199.19;;;6.98;92.03
65756;BME280;52489;47.502;18.940;2023-04-02T02:22:33;97194.16;;;7.02;92.18
65756;BME280;52489;47.502;18.940;2023-04-02T02:23:39;97193.97;;;6.98;92.54
65756;BME280;52489;47.502;18.940;2023-04-02T02:24:42;97189.13;;;7.05;92.30
65756;BME280;52489;47.502;18.940;2023-04-02T02:25:46;97193.66;;;7.14;91.67
65756;BME280;52489;47.502;18.940;2023-04-02T02:28:32;97197.38;;;7.21;91.27
65756;BME280;52489;47.502;18.940;2023-04-02T02:29:40;97193.16;;;7.25;91.09
65756;BME280;52489;47.502;18.940;2023-04-02T02:31:09;97192.91;;;7.36;90.72
65756;BME280;52489;47.502;18.940;2023-04-02T02:32:17;97195.91;;;7.43;89.88
65756;BME280;52489;47.502;18.940;2023-04-02T02:33:27;97183.84;;;7.33;90.40
65756;BME280;52489;47.502;18.940;2023-04-02T02:34:38;97190.81;;;7.24;90.91
65756;BME280;52489;47.502;18.940;2023-04-02T02:36:00;97196.34;;;7.22;91.06
65756;BME280;52489;47.502;18.940;2023-04-02T02:37:11;97202.22;;;7.28;91.12
65756;BME280;52489;47.502;18.940;2023-04-02T02:38:39;97195.16;;;7.28;90.65
65756;BME280;52489;47.502;18.940;2023-04-02T02:39:48;97187.75;;;7.22;90.94
65756;BME280;52489;47.502;18.940;2023-04-02T02:40:57;97199.97;;;7.21;90.91
65756;BME280;52489;47.502;18.940;2023-04-02T02:42:17;97200.84;;;7.31;90.75
65756;BME280;52489;47.502;18.940;2023-04-02T02:43:26;97203.72;;;7.43;89.90
65756;BME280;52489;47.502;18.940;2023-04-02T02:44:35;97201.63;;;7.31;90.34
65756;BME280;52489;47.502;18.940;2023-04-02T02:45:40;97197.94;;;7.32;90.56
65756;BME280;52489;47.502;18.940;2023-04-02T02:46:55;97208.94;;;7.29;90.54
65756;BME280;52489;47.502;18.940;2023-04-02T02:48:01;97205.19;;;7.21;90.80
65756;BME280;52489;47.502;18.940;2023-04-02T02:49:06;97200.56;;;7.18;90.93
65756;BME280;52489;47.502;18.940;2023-04-02T02:50:18;97205.00;;;7.18;90.90
65756;BME280;52489;47.502;18.940;2023-04-02T02:51:28;97208.88;;;7.20;90.89
65756;BME280;52489;47.502;18.940;2023-04-02T02:52:44;97206.31;;;7.43;89.70
65756;BME280;52489;47.502;18.940;2023-04-02T02:53:52;97215.50;;;7.63;88.46
65756;BME280;52489;47.502;18.940;2023-04-02T02:55:08;97204.37;;;7.71;87.67
65756;BME280;52489;47.502;18.940;2023-04-02T02:56:13;97207.91;;;7.52;88.16
65756;BME280;52489;47.502;18.940;2023-04-02T02:57:20;97204.75;;;7.42;89.09
65756;BME280;52489;47.502;18.940;2023-04-02T02:58:30;97206.25;;;7.34;89.37
65756;BME280;52489;47.502;18.940;2023-04-02T02:59:34;97200.38;;;7.28;89.79
65756;BME280;52489;47.502;18.940;2023-04-02T03:00:38;97201.13;;;7.29;89.82
65756;BME280;52489;47.502;18.940;2023-04-02T03:01:43;97207.16;;;7.52;88.88
65756;BME280;52489;47.502;18.940;2023-04-02T03:02:46;97207.78;;;7.35;89.55
65756;BME280;52489;47.502;18.940;2023-04-02T03:03:52;97207.69;;;7.26;90.25
65756;BME280;52489;47.502;18.940;2023-04-02T03:04:56;97203.37;;;7.22;90.66
65756;BME280;52489;47.502;18.940;2023-04-02T03:06:04;97206.75;;;7.22;90.54
65756;BME280;52489;47.502;18.940;2023-04-02T03:07:09;97206.00;;;7.44;89.61
65756;BME280;52489;47.502;18.940;2023-04-02T03:08:38;97211.28;;;7.31;89.94
65756;BME280;52489;47.502;18.940;2023-04-02T03:13:34;97218.03;;;7.18;90.88
65756;BME280;52489;47.502;18.940;2023-04-02T03:14:43;97213.41;;;7.15;90.80
65756;BME280;52489;47.502;18.940;2023-04-02T03:16:20;97219.59;;;7.19;90.59
65756;BME280;52489;47.502;18.940;2023-04-02T03:17:48;97223.16;;;7.09;91.02
65756;BME280;52489;47.502;18.940;2023-04-02T03:18:54;97217.28;;;7.17;90.63
65756;BME280;52489;47.502;18.940;2023-04-02T03:20:12;97218.81;;;7.18;90.57
65756;BME280;52489;47.502;18.940;2023-04-02T03:22:36;97214.00;;;6.98;91.34
65756;BME280;52489;47.502;18.940;2023-04-02T03:23:47;97218.16;;;6.99;91.59
65756;BME280;52489;47.502;18.940;2023-04-02T03:24:58;97216.31;;;7.13;90.54
65756;BME280;52489;47.502;18.940;2023-04-02T03:27:31;97216.03;;;7.01;90.53
65756;BME280;52489;47.502;18.940;2023-04-02T03:28:42;97216.50;;;7.03;90.46
65756;BME280;52489;47.502;18.940;2023-04-02T03:31:31;97212.19;;;6.84;91.41
65756;BME280;52489;47.502;18.940;2023-04-02T03:32:37;97219.81;;;6.81;91.76
65756;BME280;52489;47.502;18.940;2023-04-02T03:33:45;97222.78;;;6.74;91.98
65756;BME280;52489;47.502;18.940;2023-04-02T03:34:57;97215.69;;;6.66;92.42
65756;BME280;52489;47.502;18.940;2023-04-02T03:37:33;97222.62;;;6.57;92.99
65756;BME280;52489;47.502;18.940;2023-04-02T03:38:43;97220.88;;;6.52;93.19
65756;BME280;52489;47.502;18.940;2023-04-02T03:41:05;97223.00;;;6.64;92.73
65756;BME280;52489;47.502;18.940;2023-04-02T03:42:16;97225.41;;;6.60;92.42
65756;BME280;52489;47.502;18.940;2023-04-02T03:43:24;97219.78;;;6.53;93.03
65756;BME280;52489;47.502;18.940;2023-04-02T03:44:42;97225.19;;;6.43;93.61
65756;BME280;52489;47.502;18.940;2023-04-02T03:45:50;97217.19;;;6.40;94.19
65756;BME280;52489;47.502;18.940;2023-04-02T03:46:59;97225.88;;;6.49;93.88
65756;BME280;52489;47.502;18.940;2023-04-02T03:48:10;97220.94;;;6.47;94.16
65756;BME280;52489;47.502;18.940;2023-04-02T03:50:40;97221.13;;;6.37;94.71
65756;BME280;52489;47.502;18.940;2023-04-02T03:51:58;97232.81;;;6.40;94.69
65756;BME280;52489;47.502;18.940;2023-04-02T03:53:03;97227.50;;;6.45;94.23
65756;BME280;52489;47.502;18.940;2023-04-02T03:54:12;97222.88;;;6.42;94.42
65756;BME280;52489;47.502;18.940;2023-04-02T03:55:21;97226.66;;;6.49;93.86
65756;BME280;52489;47.502;18.940;2023-04-02T03:56:31;97233.38;;;6.50;93.99
65756;BME280;52489;47.502;18.940;2023-04-02T03:59:33;97233.00;;;6.43;94.52
65756;BME280;52489;47.502;18.940;2023-04-02T04:00:54;97230.00;;;6.50;94.02
65756;BME280;52489;47.502;18.940;2023-04-02T04:03:11;97230.22;;;6.40;94.65
65756;BME280;52489;47.502;18.940;2023-04-02T04:04:17;97234.34;;;6.41;94.41
65756;BME280;52489;47.502;18.940;2023-04-02T04:05:28;97232.31;;;6.37;94.74
65756;BME280;52489;47.502;18.940;2023-04-02T04:06:33;97224.00;;;6.35;94.75
65756;BME280;52489;47.502;18.940;2023-04-02T04:07:39;97236.25;;;6.35;94.88
65756;BME280;52489;47.502;18.940;2023-04-02T04:08:47;97235.56;;;6.29;95.11
65756;BME280;52489;47.502;18.940;2023-04-02T04:09:52;97231.63;;;6.32;94.89
65756;BME280;52489;47.502;18.940;2023-04-02T04:10:58;97233.72;;;6.30;94.78
65756;BME280;52489;47.502;18.940;2023-04-02T04:12:23;97233.84;;;6.38;94.77
65756;BME280;52489;47.502;18.940;2023-04-02T04:13:35;97238.28;;;6.38;94.55
65756;BME280;52489;47.502;18.940;2023-04-02T04:14:47;97237.97;;;6.26;94.90
65756;BME280;52489;47.502;18.940;2023-04-02T04:16:01;97237.28;;;6.20;95.37
65756;BME280;52489;47.502;18.940;2023-04-02T04:19:39;97244.44;;;6.28;95.08
65756;BME280;52489;47.502;18.940;2023-04-02T04:21:00;97246.06;;;6.24;95.38
65756;BME280;52489;47.502;18.940;2023-04-02T04:22:30;97246.66;;;6.21;94.85
65756;BME280;52489;47.502;18.940;2023-04-02T04:23:37;97235.56;;;6.15;95.28
65756;BME280;52489;47.502;18.940;2023-04-02T04:24:42;97250.09;;;6.17;95.65
65756;BME280;52489;47.502;18.940;2023-04-02T04:25:56;97246.91;;;6.20;95.82
65756;BME280;52489;47.502;18.940;2023-04-02T04:27:54;97246.84;;;6.25;95.06
65756;BME280;52489;47.502;18.940;2023-04-02T04:29:57;97245.00;;;6.25;94.69
65756;BME280;52489;47.502;18.940;2023-04-02T04:31:13;97248.56;;;6.29;95.02
65756;BME280;52489;47.502;18.940;2023-04-02T04:32:31;97251.16;;;6.29;95.03
65756;BME280;52489;47.502;18.940;2023-04-02T04:33:43;97252.44;;;6.32;95.08
65756;BME280;52489;47.502;18.940;2023-04-02T04:34:48;97250.63;;;6.46;94.23
65756;BME280;52489;47.502;18.940;2023-04-02T04:35:57;97251.13;;;6.48;94.00
65756;BME280;52489;47.502;18.940;2023-04-02T04:37:03;97257.37;;;6.47;93.96
65756;BME280;52489;47.502;18.940;2023-04-02T04:38:27;97254.88;;;6.42;93.90
65756;BME280;52489;47.502;18.940;2023-04-02T04:39:43;97256.22;;;6.53;93.21
65756;BME280;52489;47.502;18.940;2023-04-02T04:41:11;97258.34;;;6.51;93.44
65756;BME280;52489;47.502;18.940;2023-04-02T04:42:35;97261.22;;;6.50;93.47
65756;BME280;52489;47.502;18.940;2023-04-02T04:44:05;97250.72;;;6.41;93.83
65756;BME280;52489;47.502;18.940;2023-04-02T04:46:48;97263.38;;;6.48;93.96
65756;BME280;52489;47.502;18.940;2023-04-02T04:47:58;97260.88;;;6.70;93.81
65756;BME280;52489;47.502;18.940;2023-04-02T04:49:13;97251.63;;;6.92;92.82
65756;BME280;52489;47.502;18.940;2023-04-02T04:50:32;97261.84;;;7.02;92.77
65756;BME280;52489;47.502;18.940;2023-04-02T04:51:53;97258.56;;;6.82;93.61
65756;BME280;52489;47.502;18.940;2023-04-02T04:53:05;97262.34;;;6.90;93.83
65756;BME280;52489;47.502;18.940;2023-04-02T04:54:11;97259.75;;;7.04;93.47
65756;BME280;52489;47.502;18.940;2023-04-02T04:55:29;97266.09;;;6.98;93.28
65756;BME280;52489;47.502;18.940;2023-04-02T04:56:33;97260.09;;;6.97;93.75
65756;BME280;52489;47.502;18.940;2023-04-02T04:57:38;97269.25;;;6.95;94.37
65756;BME280;52489;47.502;18.940;2023-04-02T04:58:48;97266.00;;;7.03;93.85
65756;BME280;52489;47.502;18.940;2023-04-02T05:01:14;97268.19;;;7.10;93.85
65756;BME280;52489;47.502;18.940;2023-04-02T05:02:23;97273.81;;;7.17;93.77
65756;BME280;52489;47.502;18.940;2023-04-02T05:03:49;97275.75;;;7.25;93.22
65756;BME280;52489;47.502;18.940;2023-04-02T05:04:53;97277.12;;;7.45;92.01
65756;BME280;52489;47.502;18.940;2023-04-02T05:06:08;97271.47;;;7.43;91.67
65756;BME280;52489;47.502;18.940;2023-04-02T05:07:20;97275.41;;;7.40;92.18
65756;BME280;52489;47.502;18.940;2023-04-02T05:08:28;97269.31;;;7.45;92.31
65756;BME280;52489;47.502;18.940;2023-04-02T05:09:43;97272.97;;;7.58;91.83
65756;BME280;52489;47.502;18.940;2023-04-02T05:11:04;97282.59;;;7.71;90.21
65756;BME280;52489;47.502;18.940;2023-04-02T05:13:36;97276.94;;;7.78;90.47
65756;BME280;52489;47.502;18.940;2023-04-02T05:14:47;97285.34;;;7.88;89.49
65756;BME280;52489;47.502;18.940;2023-04-02T05:16:00;97281.78;;;7.84;89.94
65756;BME280;52489;47.502;18.940;2023-04-02T05:18:38;97285.06;;;7.90;89.74
65756;BME280;52489;47.502;18.940;2023-04-02T05:19:47;97282.56;;;7.85;90.29
65756;BME280;52489;47.502;18.940;2023-04-02T05:23:34;97280.78;;;7.94;89.68
65756;BME280;52489;47.502;18.940;2023-04-02T05:25:15;97281.38;;;7.91;90.03
65756;BME280;52489;47.502;18.940;2023-04-02T05:26:31;97286.28;;;7.92;89.91
65756;BME280;52489;47.502;18.940;2023-04-02T05:27:45;97282.91;;;7.92;90.41
65756;BME280;52489;47.502;18.940;2023-04-02T05:31:12;97288.94;;;8.01;90.13
65756;BME280;52489;47.502;18.940;2023-04-02T05:32:39;97293.41;;;8.01;90.50
65756;BME280;52489;47.502;18.940;2023-04-02T05:33:44;97286.63;;;8.22;88.82
65756;BME280;52489;47.502;18.940;2023-04-02T05:34:51;97288.25;;;8.09;89.09
65756;BME280;52489;47.502;18.940;2023-04-02T05:36:04;97293.34;;;8.14;89.54
65756;BME280;52489;47.502;18.940;2023-04-02T05:37:15;97289.38;;;8.17;89.59
65756;BME280;52489;47.502;18.940;2023-04-02T05:38:26;97289.84;;;8.19;89.57
65756;BME280;52489;47.502;18.940;2023-04-02T05:39:30;97285.00;;;8.26;89.50
65756;BME280;52489;47.502;18.940;2023-04-02T05:40:40;97284.22;;;8.26;88.99
65756;BME280;52489;47.502;18.940;2023-04-02T05:41:45;97283.03;;;8.32;89.01
65756;BME280;52489;47.502;18.940;2023-04-02T05:42:50;97282.88;;;8.37;88.72
65756;BME280;52489;47.502;18.940;2023-04-02T05:44:17;97297.84;;;8.45;87.93
65756;BME280;52489;47.502;18.940;2023-04-02T05:45:31;97291.75;;;8.50;87.09
65756;BME280;52489;47.502;18.940;2023-04-02T05:46:50;97289.84;;;8.41;87.39
65756;BME280;52489;47.502;18.940;2023-04-02T05:47:57;97287.25;;;8.41;87.09
65756;BME280;52489;47.502;18.940;2023-04-02T05:49:07;97291.09;;;8.44;87.31
65756;BME280;52489;47.502;18.940;2023-04-02T05:50:20;97295.63;;;8.52;86.99
65756;BME280;52489;47.502;18.940;2023-04-02T05:51:40;97298.00;;;8.71;87.00
65756;BME280;52489;47.502;18.940;2023-04-02T05:52:48;97289.50;;;8.97;85.81
65756;BME280;52489;47.502;18.940;2023-04-02T05:53:59;97293.53;;;9.03;85.51
65756;BME280;52489;47.502;18.940;2023-04-02T05:56:35;97301.97;;;9.00;84.40
65756;BME280;52489;47.502;18.940;2023-04-02T05:58:03;97299.38;;;9.08;85.50
65756;BME280;52489;47.502;18.940;2023-04-02T05:59:42;97300.34;;;9.21;84.46
65756;BME280;52489;47.502;18.940;2023-04-02T06:02:24;97297.44;;;9.40;83.29
65756;BME280;52489;47.502;18.940;2023-04-02T06:04:42;97292.72;;;9.51;81.94
65756;BME280;52489;47.502;18.940;2023-04-02T06:05:50;97295.91;;;9.39;82.53
65756;BME280;52489;47.502;18.940;2023-04-02T06:07:10;97302.97;;;9.30;82.94
65756;BME280;52489;47.502;18.940;2023-04-02T06:08:25;97299.59;;;9.29;83.46
65756;BME280;52489;47.502;18.940;2023-04-02T06:09:37;97305.28;;;9.31;83.25
65756;BME280;52489;47.502;18.940;2023-04-02T06:11:03;97298.22;;;9.32;82.57
65756;BME280;52489;47.502;18.940;2023-04-02T06:13:26;97299.12;;;9.27;82.90
65756;BME280;52489;47.502;18.940;2023-04-02T06:14:29;97306.81;;;9.24;83.65
65756;BME280;52489;47.502;18.940;2023-04-02T06:15:34;97308.50;;;9.28;83.22
65756;BME280;52489;47.502;18.940;2023-04-02T06:16:50;97312.84;;;9.42;82.81
65756;BME280;52489;47.502;18.940;2023-04-02T06:18:05;97312.72;;;9.55;81.92
65756;BME280;52489;47.502;18.940;2023-04-02T06:19:21;97318.72;;;9.56;81.51
65756;BME280;52489;47.502;18.940;2023-04-02T06:20:27;97321.50;;;9.60;81.35
65756;BME280;52489;47.502;18.940;2023-04-02T06:21:31;97318.37;;;9.49;81.77
65756;BME280;52489;47.502;18.940;2023-04-02T06:22:36;97317.78;;;9.52;81.82
65756;BME280;52489;47.502;18.940;2023-04-02T06:23:46;97318.72;;;9.56;81.18
65756;BME280;52489;47.502;18.940;2023-04-02T06:24:57;97312.41;;;9.66;81.20
65756;BME280;52489;47.502;18.940;2023-04-02T06:26:24;97320.44;;;9.78;80.96
65756;BME280;52489;47.502;18.940;2023-04-02T06:27:29;97318.28;;;9.80;80.33
65756;BME280;52489;47.502;18.940;2023-04-02T06:28:48;97323.66;;;9.84;80.15
65756;BME280;52489;47.502;18.940;2023-04-02T06:29:58;97319.22;;;9.93;80.10
65756;BME280;52489;47.502;18.940;2023-04-02T06:31:08;97321.66;;;9.80;80.55
65756;BME280;52489;47.502;18.940;2023-04-02T06:32:12;97320.91;;;9.80;79.96
65756;BME280;52489;47.502;18.940;2023-04-02T06:33:16;97326.75;;;9.86;80.35
65756;BME280;52489;47.502;18.940;2023-04-02T06:34:21;97325.06;;;9.90;80.17
65756;BME280;52489;47.502;18.940;2023-04-02T06:35:26;97327.81;;;10.02;80.57
65756;BME280;52489;47.502;18.940;2023-04-02T06:36:29;97325.81;;;9.99;80.30
65756;BME280;52489;47.502;18.940;2023-04-02T06:37:37;97335.22;;;10.00;78.89
65756;BME280;52489;47.502;18.940;2023-04-02T06:38:42;97332.28;;;10.01;79.27
65756;BME280;52489;47.502;18.940;2023-04-02T06:39:46;97337.84;;;10.00;79.53
65756;BME280;52489;47.502;18.940;2023-04-02T06:40:57;97334.44;;;10.08;79.17
65756;BME280;52489;47.502;18.940;2023-04-02T06:42:10;97333.66;;;10.16;78.13
65756;BME280;52489;47.502;18.940;2023-04-02T06:43:33;97338.78;;;10.30;78.22
65756;BME280;52489;47.502;18.940;2023-04-02T06:44:38;97337.06;;;10.34;77.33
65756;BME280;52489;47.502;18.940;2023-04-02T06:45:42;97337.06;;;10.17;77.88
65756;BME280;52489;47.502;18.940;2023-04-02T06:47:17;97339.38;;;10.18;77.55
65756;BME280;52489;47.502;18.940;2023-04-02T06:48:16;97340.00;;;10.24;77.70
65756;BME280;52489;47.502;18.940;2023-04-02T06:49:27;97342.28;;;10.25;77.31
65756;BME280;52489;47.502;18.940;2023-04-02T06:51:09;97347.69;;;10.12;78.62
65756;BME280;52489;47.502;18.940;2023-04-02T06:52:19;97345.66;;;10.26;77.90
65756;BME280;52489;47.502;18.940;2023-04-02T06:53:40;97347.41;;;10.39;77.82
65756;BME280;52489;47.502;18.940;2023-04-02T06:54:45;97351.09;;;10.47;77.29
65756;BME280;52489;47.502;18.940;2023-04-02T06:56:09;97352.75;;;10.52;77.29
65756;BME280;52489;47.502;18.940;2023-04-02T06:57:15;97356.47;;;10.42;77.13
65756;BME280;52489;47.502;18.940;2023-04-02T06:58:18;97356.03;;;10.31;76.98
65756;BME280;52489;47.502;18.940;2023-04-02T06:59:22;97355.25;;;10.31;77.25
65756;BME280;52489;47.502;18.940;2023-04-02T07:00:41;97352.62;;;10.31;77.67
65756;BME280;52489;47.502;18.940;2023-04-02T07:01:51;97359.88;;;10.42;77.54
65756;BME280;52489;47.502;18.940;2023-04-02T07:02:55;97352.44;;;10.62;76.95
65756;BME280;52489;47.502;18.940;2023-04-02T07:03:59;97352.38;;;10.79;75.30
65756;BME280;52489;47.502;18.940;2023-04-02T07:05:07;97351.22;;;10.59;76.70